sensor_id;sensor_type;location;lat;lon;timestamp;P1;durP1;ratioP1;P2;durP2;ratioP2
12956;SDS011;6543;48.836;10.092;2022-11-20T00:00:16;8.43;;;6.90;;
12956;SDS011;6543;48.836;10.092;2022-11-20T00:02:43;10.40;;;7.70;;
12956;SDS011;6543;48.836;10.092;2022-11-20T00:05:10;10.73;;;7.90;;
12956;SDS011;6543;48.836;10.092;2022-11-20T00:07:37;8.23;;;7.43;;
12956;SDS011;6543;48.836;10.092;2022-11-20T00:10:04;9.30;;;7.00;;
12956;SDS011;6543;48.836;10.092;2022-11-20T00:12:32;8.13;;;7.30;;
12956;SDS011;6543;48.836;10.092;2022-11-20T00:15:00;8.67;;;7.60;;
12956;SDS011;6543;48.836;10.092;2022-11-20T00:17:27;8.77;;;7.17;;
12956;SDS011;6543;48.836;10.092;2022-11-20T00:19:54;8.67;;;6.70;;
12956;SDS011;6543;48.836;10.092;2022-11-20T00:22:20;9.33;;;7.80;;
12956;SDS011;6543;48.836;10.092;2022-11-20T00:24:47;11.43;;;7.83;;
12956;SDS011;6543;48.836;10.092;2022-11-20T00:27:14;9.00;;;7.77;;
12956;SDS011;6543;48.836;10.092;2022-11-20T00:29:42;12.20;;;7.60;;
12956;SDS011;6543;48.836;10.092;2022-11-20T00:32:09;10.50;;;7.73;;
12956;SDS011;6543;48.836;10.092;2022-11-20T00:34:36;8.73;;;7.33;;
12956;SDS011;6543;48.836;10.092;2022-11-20T00:37:02;8.93;;;7.43;;
12956;SDS011;6543;48.836;10.092;2022-11-20T00:39:29;9.90;;;7.37;;
12956;SDS011;6543;48.836;10.092;2022-11-20T00:41:56;8.63;;;6.90;;
12956;SDS011;6543;48.836;10.092;2022-11-20T00:44:23;11.10;;;8.03;;
12956;SDS011;6543;48.836;10.092;2022-11-20T00:46:51;9.70;;;7.00;;
12956;SDS011;6543;48.836;10.092;2022-11-20T00:49:18;8.50;;;7.70;;
12956;SDS011;6543;48.836;10.092;2022-11-20T00:51:45;8.10;;;7.30;;
12956;SDS011;6543;48.836;10.092;2022-11-20T00:54:11;8.37;;;7.20;;
12956;SDS011;6543;48.836;10.092;2022-11-20T00:56:38;9.77;;;7.10;;
12956;SDS011;6543;48.836;10.092;2022-11-20T00:59:05;7.80;;;7.03;;
12956;SDS011;6543;48.836;10.092;2022-11-20T01:01:32;9.53;;;7.50;;
12956;SDS011;6543;48.836;10.092;2022-11-20T01:04:00;9.53;;;6.60;;
12956;SDS011;6543;48.836;10.092;2022-11-20T01:06:28;8.10;;;6.67;;
12956;SDS011;6543;48.836;10.092;2022-11-20T01:08:57;7.97;;;6.40;;
12956;SDS011;6543;48.836;10.092;2022-11-20T01:11:25;11.97;;;6.40;;
12956;SDS011;6543;48.836;10.092;2022-11-20T01:13:53;7.67;;;6.50;;
12956;SDS011;6543;48.836;10.092;2022-11-20T01:16:22;7.03;;;6.30;;
12956;SDS011;6543;48.836;10.092;2022-11-20T01:18:51;10.87;;;6.23;;
12956;SDS011;6543;48.836;10.092;2022-11-20T01:21:22;7.77;;;6.10;;
12956;SDS011;6543;48.836;10.092;2022-11-20T01:23:50;7.47;;;6.63;;
12956;SDS011;6543;48.836;10.092;2022-11-20T01:26:18;6.47;;;5.87;;
12956;SDS011;6543;48.836;10.092;2022-11-20T01:28:46;8.87;;;6.10;;
12956;SDS011;6543;48.836;10.092;2022-11-20T01:31:14;6.23;;;5.57;;
12956;SDS011;6543;48.836;10.092;2022-11-20T01:33:43;6.07;;;5.47;;
12956;SDS011;6543;48.836;10.092;2022-11-20T01:36:10;6.03;;;5.43;;
12956;SDS011;6543;48.836;10.092;2022-11-20T01:38:39;5.73;;;5.23;;
12956;SDS011;6543;48.836;10.092;2022-11-20T01:41:07;10.20;;;5.20;;
12956;SDS011;6543;48.836;10.092;2022-11-20T01:43:34;6.00;;;5.03;;
12956;SDS011;6543;48.836;10.092;2022-11-20T01:46:02;5.33;;;4.70;;
12956;SDS011;6543;48.836;10.092;2022-11-20T01:48:45;5.17;;;4.63;;
12956;SDS011;6543;48.836;10.092;2022-11-20T01:51:20;4.80;;;3.97;;
12956;SDS011;6543;48.836;10.092;2022-11-20T01:53:53;5.07;;;4.47;;
12956;SDS011;6543;48.836;10.092;2022-11-20T01:56:21;5.07;;;4.23;;
12956;SDS011;6543;48.836;10.092;2022-11-20T01:58:49;5.70;;;4.17;;
12956;SDS011;6543;48.836;10.092;2022-11-20T02:01:20;4.50;;;3.83;;
12956;SDS011;6543;48.836;10.092;2022-11-20T02:03:47;5.07;;;3.97;;
12956;SDS011;6543;48.836;10.092;2022-11-20T02:06:16;3.63;;;3.33;;
12956;SDS011;6543;48.836;10.092;2022-11-20T02:08:47;4.00;;;3.70;;
12956;SDS011;6543;48.836;10.092;2022-11-20T02:11:16;5.50;;;4.10;;
12956;SDS011;6543;48.836;10.092;2022-11-20T02:13:42;4.50;;;3.80;;
12956;SDS011;6543;48.836;10.092;2022-11-20T02:16:10;5.60;;;4.53;;
12956;SDS011;6543;48.836;10.092;2022-11-20T02:18:40;5.23;;;4.20;;
12956;SDS011;6543;48.836;10.092;2022-11-20T02:21:09;4.50;;;4.10;;
12956;SDS011;6543;48.836;10.092;2022-11-20T02:23:53;8.00;;;4.53;;
12956;SDS011;6543;48.836;10.092;2022-11-20T02:26:24;3.90;;;3.60;;
12956;SDS011;6543;48.836;10.092;2022-11-20T02:28:53;4.37;;;3.43;;
12956;SDS011;6543;48.836;10.092;2022-11-20T02:31:21;10.97;;;4.10;;
12956;SDS011;6543;48.836;10.092;2022-11-20T02:33:47;7.13;;;3.70;;
12956;SDS011;6543;48.836;10.092;2022-11-20T02:36:21;4.77;;;3.87;;
12956;SDS011;6543;48.836;10.092;2022-11-20T02:38:48;6.83;;;3.70;;
12956;SDS011;6543;48.836;10.092;2022-11-20T02:41:17;4.80;;;3.77;;
12956;SDS011;6543;48.836;10.092;2022-11-20T02:43:44;3.87;;;3.40;;
12956;SDS011;6543;48.836;10.092;2022-11-20T02:46:10;3.43;;;2.90;;
12956;SDS011;6543;48.836;10.092;2022-11-20T02:48:37;3.50;;;3.03;;
12956;SDS011;6543;48.836;10.092;2022-11-20T02:51:04;3.87;;;3.57;;
12956;SDS011;6543;48.836;10.092;2022-11-20T02:53:31;4.23;;;3.33;;
12956;SDS011;6543;48.836;10.092;2022-11-20T02:55:58;4.17;;;3.50;;
12956;SDS011;6543;48.836;10.092;2022-11-20T02:58:26;5.33;;;3.33;;
12956;SDS011;6543;48.836;10.092;2022-11-20T03:00:53;5.50;;;3.27;;
12956;SDS011;6543;48.836;10.092;2022-11-20T03:03:19;4.87;;;3.17;;
12956;SDS011;6543;48.836;10.092;2022-11-20T03:05:46;3.33;;;3.00;;
12956;SDS011;6543;48.836;10.092;2022-11-20T03:08:13;6.80;;;3.10;;
12956;SDS011;6543;48.836;10.092;2022-11-20T03:10:40;3.80;;;2.90;;
12956;SDS011;6543;48.836;10.092;2022-11-20T03:13:07;2.87;;;2.63;;
12956;SDS011;6543;48.836;10.092;2022-11-20T03:15:36;3.07;;;2.87;;
12956;SDS011;6543;48.836;10.092;2022-11-20T03:18:04;4.70;;;3.13;;
12956;SDS011;6543;48.836;10.092;2022-11-20T03:20:32;2.50;;;2.30;;
12956;SDS011;6543;48.836;10.092;2022-11-20T03:22:59;5.73;;;3.17;;
12956;SDS011;6543;48.836;10.092;2022-11-20T03:25:26;2.87;;;2.40;;
12956;SDS011;6543;48.836;10.092;2022-11-20T03:27:53;3.63;;;2.67;;
12956;SDS011;6543;48.836;10.092;2022-11-20T03:30:20;3.10;;;2.80;;
12956;SDS011;6543;48.836;10.092;2022-11-20T03:32:49;4.33;;;2.70;;
12956;SDS011;6543;48.836;10.092;2022-11-20T03:35:19;2.60;;;2.40;;
12956;SDS011;6543;48.836;10.092;2022-11-20T03:37:46;2.70;;;2.50;;
12956;SDS011;6543;48.836;10.092;2022-11-20T03:40:13;2.83;;;2.50;;
12956;SDS011;6543;48.836;10.092;2022-11-20T03:42:40;2.67;;;2.40;;
12956;SDS011;6543;48.836;10.092;2022-11-20T03:45:13;3.60;;;2.90;;
12956;SDS011;6543;48.836;10.092;2022-11-20T03:47:40;3.33;;;1.73;;
12956;SDS011;6543;48.836;10.092;2022-11-20T03:50:09;4.00;;;2.73;;
12956;SDS011;6543;48.836;10.092;2022-11-20T03:52:38;3.33;;;2.77;;
12956;SDS011;6543;48.836;10.092;2022-11-20T03:55:05;3.67;;;3.27;;
12956;SDS011;6543;48.836;10.092;2022-11-20T03:57:32;6.07;;;3.60;;
12956;SDS011;6543;48.836;10.092;2022-11-20T03:59:59;3.73;;;3.10;;
12956;SDS011;6543;48.836;10.092;2022-11-20T04:02:26;2.90;;;2.70;;
12956;SDS011;6543;48.836;10.092;2022-11-20T04:04:52;8.87;;;3.27;;
12956;SDS011;6543;48.836;10.092;2022-11-20T04:07:21;5.57;;;3.00;;
12956;SDS011;6543;48.836;10.092;2022-11-20T04:09:47;3.23;;;2.93;;
12956;SDS011;6543;48.836;10.092;2022-11-20T04:12:14;3.20;;;2.90;;
12956;SDS011;6543;48.836;10.092;2022-11-20T04:14:41;5.67;;;2.63;;
12956;SDS011;6543;48.836;10.092;2022-11-20T04:17:08;4.47;;;2.83;;
12956;SDS011;6543;48.836;10.092;2022-11-20T04:19:35;4.67;;;3.30;;
12956;SDS011;6543;48.836;10.092;2022-11-20T04:22:01;3.30;;;3.00;;
12956;SDS011;6543;48.836;10.092;2022-11-20T04:24:30;4.30;;;2.53;;
12956;SDS011;6543;48.836;10.092;2022-11-20T04:26:56;3.63;;;2.90;;
12956;SDS011;6543;48.836;10.092;2022-11-20T04:29:23;4.00;;;2.50;;
12956;SDS011;6543;48.836;10.092;2022-11-20T04:31:50;2.60;;;2.40;;
12956;SDS011;6543;48.836;10.092;2022-11-20T04:34:17;5.67;;;2.10;;
12956;SDS011;6543;48.836;10.092;2022-11-20T04:36:44;3.53;;;2.87;;
12956;SDS011;6543;48.836;10.092;2022-11-20T04:39:11;2.47;;;2.27;;
12956;SDS011;6543;48.836;10.092;2022-11-20T04:41:40;4.93;;;2.83;;
12956;SDS011;6543;48.836;10.092;2022-11-20T04:44:07;3.43;;;2.60;;
12956;SDS011;6543;48.836;10.092;2022-11-20T04:46:35;2.80;;;2.60;;
12956;SDS011;6543;48.836;10.092;2022-11-20T04:49:03;2.57;;;2.33;;
12956;SDS011;6543;48.836;10.092;2022-11-20T04:51:31;3.93;;;2.30;;
12956;SDS011;6543;48.836;10.092;2022-11-20T04:53:58;5.90;;;2.60;;
12956;SDS011;6543;48.836;10.092;2022-11-20T04:56:25;2.40;;;2.20;;
12956;SDS011;6543;48.836;10.092;2022-11-20T04:58:53;3.23;;;2.33;;
12956;SDS011;6543;48.836;10.092;2022-11-20T05:01:20;2.50;;;2.30;;
12956;SDS011;6543;48.836;10.092;2022-11-20T05:03:49;3.10;;;2.37;;
12956;SDS011;6543;48.836;10.092;2022-11-20T05:06:17;2.43;;;2.23;;
12956;SDS011;6543;48.836;10.092;2022-11-20T05:08:46;2.07;;;1.87;;
12956;SDS011;6543;48.836;10.092;2022-11-20T05:11:14;4.20;;;1.90;;
12956;SDS011;6543;48.836;10.092;2022-11-20T05:13:42;3.07;;;2.30;;
12956;SDS011;6543;48.836;10.092;2022-11-20T05:16:11;2.57;;;2.30;;
12956;SDS011;6543;48.836;10.092;2022-11-20T05:18:39;2.50;;;2.30;;
12956;SDS011;6543;48.836;10.092;2022-11-20T05:21:07;5.27;;;2.23;;
12956;SDS011;6543;48.836;10.092;2022-11-20T05:23:35;2.73;;;2.10;;
12956;SDS011;6543;48.836;10.092;2022-11-20T05:26:03;2.73;;;2.10;;
12956;SDS011;6543;48.836;10.092;2022-11-20T05:28:30;2.33;;;2.17;;
12956;SDS011;6543;48.836;10.092;2022-11-20T05:31:03;3.07;;;2.07;;
12956;SDS011;6543;48.836;10.092;2022-11-20T05:33:33;2.60;;;2.00;;
12956;SDS011;6543;48.836;10.092;2022-11-20T05:36:00;3.97;;;1.67;;
12956;SDS011;6543;48.836;10.092;2022-11-20T05:38:26;2.30;;;1.87;;
12956;SDS011;6543;48.836;10.092;2022-11-20T05:40:53;2.87;;;2.17;;
12956;SDS011;6543;48.836;10.092;2022-11-20T05:43:20;3.83;;;2.33;;
12956;SDS011;6543;48.836;10.092;2022-11-20T05:45:56;2.07;;;1.90;;
12956;SDS011;6543;48.836;10.092;2022-11-20T05:48:23;1.97;;;1.83;;
12956;SDS011;6543;48.836;10.092;2022-11-20T05:50:52;4.80;;;2.30;;
12956;SDS011;6543;48.836;10.092;2022-11-20T05:53:19;1.90;;;1.80;;
12956;SDS011;6543;48.836;10.092;2022-11-20T05:55:45;4.27;;;2.00;;
12956;SDS011;6543;48.836;10.092;2022-11-20T05:58:12;3.27;;;2.17;;
12956;SDS011;6543;48.836;10.092;2022-11-20T06:00:39;2.27;;;1.93;;
12956;SDS011;6543;48.836;10.092;2022-11-20T06:03:06;3.03;;;2.00;;
12956;SDS011;6543;48.836;10.092;2022-11-20T06:05:33;1.40;;;1.27;;
12956;SDS011;6543;48.836;10.092;2022-11-20T06:08:01;2.00;;;1.80;;
12956;SDS011;6543;48.836;10.092;2022-11-20T06:10:28;1.70;;;1.60;;
12956;SDS011;6543;48.836;10.092;2022-11-20T06:12:56;2.50;;;2.10;;
12956;SDS011;6543;48.836;10.092;2022-11-20T06:15:23;4.80;;;2.00;;
12956;SDS011;6543;48.836;10.092;2022-11-20T06:17:51;4.13;;;2.20;;
12956;SDS011;6543;48.836;10.092;2022-11-20T06:20:18;1.80;;;1.70;;
12956;SDS011;6543;48.836;10.092;2022-11-20T06:22:45;5.53;;;2.20;;
12956;SDS011;6543;48.836;10.092;2022-11-20T06:25:13;2.37;;;2.17;;
12956;SDS011;6543;48.836;10.092;2022-11-20T06:27:40;4.50;;;1.73;;
12956;SDS011;6543;48.836;10.092;2022-11-20T06:30:08;2.53;;;1.70;;
12956;SDS011;6543;48.836;10.092;2022-11-20T06:32:35;2.10;;;1.83;;
12956;SDS011;6543;48.836;10.092;2022-11-20T06:35:02;2.50;;;1.73;;
12956;SDS011;6543;48.836;10.092;2022-11-20T06:37:30;5.27;;;1.97;;
12956;SDS011;6543;48.836;10.092;2022-11-20T06:39:57;3.57;;;2.03;;
12956;SDS011;6543;48.836;10.092;2022-11-20T06:42:25;3.67;;;2.10;;
12956;SDS011;6543;48.836;10.092;2022-11-20T06:44:52;1.93;;;1.80;;
12956;SDS011;6543;48.836;10.092;2022-11-20T06:47:18;3.20;;;2.23;;
12956;SDS011;6543;48.836;10.092;2022-11-20T06:49:45;4.20;;;2.20;;
12956;SDS011;6543;48.836;10.092;2022-11-20T06:52:12;2.17;;;1.80;;
12956;SDS011;6543;48.836;10.092;2022-11-20T06:54:39;3.63;;;1.93;;
12956;SDS011;6543;48.836;10.092;2022-11-20T06:57:05;4.60;;;2.27;;
12956;SDS011;6543;48.836;10.092;2022-11-20T06:59:34;2.50;;;2.30;;
12956;SDS011;6543;48.836;10.092;2022-11-20T07:02:00;2.60;;;2.07;;
12956;SDS011;6543;48.836;10.092;2022-11-20T07:04:27;2.10;;;1.97;;
12956;SDS011;6543;48.836;10.092;2022-11-20T07:06:54;2.53;;;2.13;;
12956;SDS011;6543;48.836;10.092;2022-11-20T07:09:21;5.63;;;2.90;;
12956;SDS011;6543;48.836;10.092;2022-11-20T07:11:48;10.20;;;3.10;;
12956;SDS011;6543;48.836;10.092;2022-11-20T07:14:15;4.33;;;2.20;;
12956;SDS011;6543;48.836;10.092;2022-11-20T07:16:43;3.70;;;2.53;;
12956;SDS011;6543;48.836;10.092;2022-11-20T07:19:10;2.90;;;1.77;;
12956;SDS011;6543;48.836;10.092;2022-11-20T07:21:36;2.23;;;2.03;;
12956;SDS011;6543;48.836;10.092;2022-11-20T07:24:03;4.53;;;1.70;;
12956;SDS011;6543;48.836;10.092;2022-11-20T07:26:30;2.57;;;1.93;;
12956;SDS011;6543;48.836;10.092;2022-11-20T07:28:57;2.57;;;1.67;;
12956;SDS011;6543;48.836;10.092;2022-11-20T07:31:24;3.17;;;1.60;;
12956;SDS011;6543;48.836;10.092;2022-11-20T07:33:52;1.70;;;1.53;;
12956;SDS011;6543;48.836;10.092;2022-11-20T07:36:19;4.60;;;1.60;;
12956;SDS011;6543;48.836;10.092;2022-11-20T07:38:46;10.60;;;1.90;;
12956;SDS011;6543;48.836;10.092;2022-11-20T07:41:13;1.63;;;1.40;;
12956;SDS011;6543;48.836;10.092;2022-11-20T07:43:40;1.20;;;1.10;;
12956;SDS011;6543;48.836;10.092;2022-11-20T07:46:07;0.80;;;0.80;;
12956;SDS011;6543;48.836;10.092;2022-11-20T07:48:34;2.83;;;1.40;;
12956;SDS011;6543;48.836;10.092;2022-11-20T07:51:02;1.50;;;1.40;;
12956;SDS011;6543;48.836;10.092;2022-11-20T07:53:29;1.93;;;1.10;;
12956;SDS011;6543;48.836;10.092;2022-11-20T07:55:58;1.73;;;0.97;;
12956;SDS011;6543;48.836;10.092;2022-11-20T07:58:26;1.57;;;1.10;;
12956;SDS011;6543;48.836;10.092;2022-11-20T08:00:55;1.33;;;1.13;;
12956;SDS011;6543;48.836;10.092;2022-11-20T08:03:22;3.40;;;1.33;;
12956;SDS011;6543;48.836;10.092;2022-11-20T08:05:48;1.23;;;1.13;;
12956;SDS011;6543;48.836;10.092;2022-11-20T08:08:17;1.23;;;0.97;;
12956;SDS011;6543;48.836;10.092;2022-11-20T08:10:43;3.03;;;1.40;;
12956;SDS011;6543;48.836;10.092;2022-11-20T08:13:10;2.17;;;1.10;;
12956;SDS011;6543;48.836;10.092;2022-11-20T08:15:54;1.37;;;1.27;;
12956;SDS011;6543;48.836;10.092;2022-11-20T08:18:21;1.60;;;1.20;;
12956;SDS011;6543;48.836;10.092;2022-11-20T08:20:48;2.37;;;1.30;;
12956;SDS011;6543;48.836;10.092;2022-11-20T08:23:16;1.50;;;1.10;;
12956;SDS011;6543;48.836;10.092;2022-11-20T08:25:43;2.23;;;1.30;;
12956;SDS011;6543;48.836;10.092;2022-11-20T08:28:14;1.57;;;0.93;;
12956;SDS011;6543;48.836;10.092;2022-11-20T08:30:41;3.83;;;1.67;;
12956;SDS011;6543;48.836;10.092;2022-11-20T08:33:08;2.80;;;0.97;;
12956;SDS011;6543;48.836;10.092;2022-11-20T08:35:35;1.30;;;1.03;;
12956;SDS011;6543;48.836;10.092;2022-11-20T08:38:04;2.93;;;1.03;;
12956;SDS011;6543;48.836;10.092;2022-11-20T08:40:33;1.60;;;1.17;;
12956;SDS011;6543;48.836;10.092;2022-11-20T08:43:00;1.30;;;1.20;;
12956;SDS011;6543;48.836;10.092;2022-11-20T08:45:27;1.83;;;1.20;;
12956;SDS011;6543;48.836;10.092;2022-11-20T08:47:59;1.30;;;1.10;;
12956;SDS011;6543;48.836;10.092;2022-11-20T08:50:26;1.40;;;0.93;;
12956;SDS011;6543;48.836;10.092;2022-11-20T08:52:53;1.03;;;1.00;;
12956;SDS011;6543;48.836;10.092;2022-11-20T08:55:20;2.60;;;0.83;;
12956;SDS011;6543;48.836;10.092;2022-11-20T08:57:48;1.10;;;1.00;;
12956;SDS011;6543;48.836;10.092;2022-11-20T09:00:15;2.10;;;1.60;;
12956;SDS011;6543;48.836;10.092;2022-11-20T09:02:42;1.17;;;1.07;;
12956;SDS011;6543;48.836;10.092;2022-11-20T09:05:09;1.30;;;1.20;;
12956;SDS011;6543;48.836;10.092;2022-11-20T09:07:36;1.27;;;1.10;;
12956;SDS011;6543;48.836;10.092;2022-11-20T09:10:03;1.33;;;0.80;;
12956;SDS011;6543;48.836;10.092;2022-11-20T09:12:32;2.03;;;1.43;;
12956;SDS011;6543;48.836;10.092;2022-11-20T09:15:01;1.83;;;1.33;;
12956;SDS011;6543;48.836;10.092;2022-11-20T09:17:27;2.00;;;1.60;;
12956;SDS011;6543;48.836;10.092;2022-11-20T09:19:54;1.80;;;1.60;;
12956;SDS011;6543;48.836;10.092;2022-11-20T09:22:21;2.57;;;1.20;;
12956;SDS011;6543;48.836;10.092;2022-11-20T09:24:48;2.03;;;1.70;;
12956;SDS011;6543;48.836;10.092;2022-11-20T09:27:15;4.93;;;2.27;;
12956;SDS011;6543;48.836;10.092;2022-11-20T09:29:45;2.77;;;1.70;;
12956;SDS011;6543;48.836;10.092;2022-11-20T09:32:13;2.47;;;1.83;;
12956;SDS011;6543;48.836;10.092;2022-11-20T09:34:40;2.50;;;2.30;;
12956;SDS011;6543;48.836;10.092;2022-11-20T09:37:07;5.13;;;1.90;;
12956;SDS011;6543;48.836;10.092;2022-11-20T09:39:34;3.43;;;1.93;;
12956;SDS011;6543;48.836;10.092;2022-11-20T09:42:07;2.97;;;1.70;;
12956;SDS011;6543;48.836;10.092;2022-11-20T09:45:05;3.07;;;1.87;;
12956;SDS011;6543;48.836;10.092;2022-11-20T09:47:52;2.40;;;1.33;;
12956;SDS011;6543;48.836;10.092;2022-11-20T09:50:48;2.73;;;2.00;;
12956;SDS011;6543;48.836;10.092;2022-11-20T09:53:20;1.97;;;1.33;;
12956;SDS011;6543;48.836;10.092;2022-11-20T09:55:54;1.53;;;1.40;;
12956;SDS011;6543;48.836;10.092;2022-11-20T09:58:25;1.53;;;1.37;;
12956;SDS011;6543;48.836;10.092;2022-11-20T10:00:58;1.07;;;0.90;;
12956;SDS011;6543;48.836;10.092;2022-11-20T10:03:36;2.37;;;1.43;;
12956;SDS011;6543;48.836;10.092;2022-11-20T10:06:08;2.10;;;1.27;;
12956;SDS011;6543;48.836;10.092;2022-11-20T10:08:42;1.47;;;1.00;;
12956;SDS011;6543;48.836;10.092;2022-11-20T10:11:15;1.47;;;1.10;;
12956;SDS011;6543;48.836;10.092;2022-11-20T10:13:51;1.10;;;1.03;;
12956;SDS011;6543;48.836;10.092;2022-11-20T10:16:30;1.90;;;1.20;;
12956;SDS011;6543;48.836;10.092;2022-11-20T10:19:11;4.03;;;0.80;;
12956;SDS011;6543;48.836;10.092;2022-11-20T10:21:51;1.20;;;1.10;;
12956;SDS011;6543;48.836;10.092;2022-11-20T10:24:37;2.00;;;1.30;;
12956;SDS011;6543;48.836;10.092;2022-11-20T10:27:15;1.10;;;1.00;;
12956;SDS011;6543;48.836;10.092;2022-11-20T10:30:00;1.60;;;1.50;;
12956;SDS011;6543;48.836;10.092;2022-11-20T10:32:31;2.80;;;1.57;;
12956;SDS011;6543;48.836;10.092;2022-11-20T10:35:05;1.60;;;1.50;;
12956;SDS011;6543;48.836;10.092;2022-11-20T10:37:42;1.50;;;1.40;;
12956;SDS011;6543;48.836;10.092;2022-11-20T10:40:18;1.40;;;1.30;;
12956;SDS011;6543;48.836;10.092;2022-11-20T10:42:49;4.83;;;2.53;;
12956;SDS011;6543;48.836;10.092;2022-11-20T10:45:21;1.70;;;1.20;;
12956;SDS011;6543;48.836;10.092;2022-11-20T10:48:07;2.13;;;1.27;;
12956;SDS011;6543;48.836;10.092;2022-11-20T10:50:42;1.40;;;1.30;;
12956;SDS011;6543;48.836;10.092;2022-11-20T10:53:17;3.23;;;1.67;;
12956;SDS011;6543;48.836;10.092;2022-11-20T10:55:57;1.87;;;1.50;;
12956;SDS011;6543;48.836;10.092;2022-11-20T10:58:33;2.63;;;1.83;;
12956;SDS011;6543;48.836;10.092;2022-11-20T11:01:13;2.97;;;1.50;;
12956;SDS011;6543;48.836;10.092;2022-11-20T11:03:41;1.87;;;1.40;;
12956;SDS011;6543;48.836;10.092;2022-11-20T11:06:12;1.73;;;1.50;;
12956;SDS011;6543;48.836;10.092;2022-11-20T11:08:46;2.30;;;1.43;;
12956;SDS011;6543;48.836;10.092;2022-11-20T11:11:18;5.00;;;1.70;;
12956;SDS011;6543;48.836;10.092;2022-11-20T11:13:48;1.03;;;1.00;;
12956;SDS011;6543;48.836;10.092;2022-11-20T11:16:21;2.90;;;2.27;;
12956;SDS011;6543;48.836;10.092;2022-11-20T11:18:50;1.73;;;1.53;;
12956;SDS011;6543;48.836;10.092;2022-11-20T11:21:25;2.03;;;1.63;;
12956;SDS011;6543;48.836;10.092;2022-11-20T11:24:02;2.83;;;2.00;;
12956;SDS011;6543;48.836;10.092;2022-11-20T11:26:30;1.60;;;1.50;;
12956;SDS011;6543;48.836;10.092;2022-11-20T11:28:57;1.97;;;1.77;;
12956;SDS011;6543;48.836;10.092;2022-11-20T11:31:26;0.60;;;0.60;;
12956;SDS011;6543;48.836;10.092;2022-11-20T11:34:03;1.23;;;1.13;;
12956;SDS011;6543;48.836;10.092;2022-11-20T11:36:33;0.90;;;0.90;;
12956;SDS011;6543;48.836;10.092;2022-11-20T11:39:02;1.33;;;1.23;;
12956;SDS011;6543;48.836;10.092;2022-11-20T11:41:31;0.83;;;0.83;;
12956;SDS011;6543;48.836;10.092;2022-11-20T11:44:01;1.23;;;1.13;;
12956;SDS011;6543;48.836;10.092;2022-11-20T11:46:59;1.07;;;1.00;;
12956;SDS011;6543;48.836;10.092;2022-11-20T11:49:26;1.50;;;1.40;;
12956;SDS011;6543;48.836;10.092;2022-11-20T11:51:59;1.90;;;1.70;;
12956;SDS011;6543;48.836;10.092;2022-11-20T11:54:33;1.50;;;1.40;;
12956;SDS011;6543;48.836;10.092;2022-11-20T11:57:07;1.50;;;1.40;;
12956;SDS011;6543;48.836;10.092;2022-11-20T11:59:45;1.70;;;1.60;;
12956;SDS011;6543;48.836;10.092;2022-11-20T12:02:26;1.30;;;1.20;;
12956;SDS011;6543;48.836;10.092;2022-11-20T12:05:02;3.23;;;1.63;;
12956;SDS011;6543;48.836;10.092;2022-11-20T12:07:38;1.93;;;1.50;;
12956;SDS011;6543;48.836;10.092;2022-11-20T12:10:12;1.30;;;1.20;;
12956;SDS011;6543;48.836;10.092;2022-11-20T12:12:46;1.43;;;1.10;;
12956;SDS011;6543;48.836;10.092;2022-11-20T12:15:21;1.20;;;1.10;;
12956;SDS011;6543;48.836;10.092;2022-11-20T12:17:52;1.83;;;0.83;;
12956;SDS011;6543;48.836;10.092;2022-11-20T12:20:19;1.20;;;1.10;;
12956;SDS011;6543;48.836;10.092;2022-11-20T12:22:51;1.13;;;1.03;;
12956;SDS011;6543;48.836;10.092;2022-11-20T12:25:27;2.13;;;1.10;;
12956;SDS011;6543;48.836;10.092;2022-11-20T12:28:02;1.20;;;1.10;;
12956;SDS011;6543;48.836;10.092;2022-11-20T12:30:47;1.50;;;1.30;;
12956;SDS011;6543;48.836;10.092;2022-11-20T12:33:24;1.67;;;1.57;;
12956;SDS011;6543;48.836;10.092;2022-11-20T12:36:06;1.00;;;1.00;;
12956;SDS011;6543;48.836;10.092;2022-11-20T12:38:57;1.10;;;1.00;;
12956;SDS011;6543;48.836;10.092;2022-11-20T12:41:43;2.50;;;1.00;;
12956;SDS011;6543;48.836;10.092;2022-11-20T12:50:41;1.30;;;1.20;;
12956;SDS011;6543;48.836;10.092;2022-11-20T12:53:19;2.07;;;1.30;;
12956;SDS011;6543;48.836;10.092;2022-11-20T12:55:53;1.40;;;1.30;;
12956;SDS011;6543;48.836;10.092;2022-11-20T12:58:31;1.33;;;1.23;;
12956;SDS011;6543;48.836;10.092;2022-11-20T13:01:04;3.03;;;1.17;;
12956;SDS011;6543;48.836;10.092;2022-11-20T13:04:03;1.20;;;1.10;;
12956;SDS011;6543;48.836;10.092;2022-11-20T13:06:38;1.33;;;0.80;;
12956;SDS011;6543;48.836;10.092;2022-11-20T13:09:06;2.83;;;1.50;;
12956;SDS011;6543;48.836;10.092;2022-11-20T13:11:40;3.30;;;1.43;;
12956;SDS011;6543;48.836;10.092;2022-11-20T13:14:13;2.23;;;1.60;;
12956;SDS011;6543;48.836;10.092;2022-11-20T13:16:51;2.13;;;1.30;;
12956;SDS011;6543;48.836;10.092;2022-11-20T13:19:24;2.80;;;1.70;;
12956;SDS011;6543;48.836;10.092;2022-11-20T13:21:53;2.47;;;1.60;;
12956;SDS011;6543;48.836;10.092;2022-11-20T13:24:22;3.97;;;1.50;;
12956;SDS011;6543;48.836;10.092;2022-11-20T13:27:05;1.03;;;1.03;;
12956;SDS011;6543;48.836;10.092;2022-11-20T13:29:58;1.93;;;1.10;;
12956;SDS011;6543;48.836;10.092;2022-11-20T13:32:27;2.77;;;1.30;;
12956;SDS011;6543;48.836;10.092;2022-11-20T13:34:57;2.27;;;1.00;;
12956;SDS011;6543;48.836;10.092;2022-11-20T13:37:27;2.60;;;1.40;;
12956;SDS011;6543;48.836;10.092;2022-11-20T13:40:10;2.70;;;1.20;;
12956;SDS011;6543;48.836;10.092;2022-11-20T13:42:43;1.37;;;1.07;;
12956;SDS011;6543;48.836;10.092;2022-11-20T13:45:21;4.13;;;1.70;;
12956;SDS011;6543;48.836;10.092;2022-11-20T13:47:49;5.03;;;1.10;;
12956;SDS011;6543;48.836;10.092;2022-11-20T13:50:17;3.30;;;1.53;;
12956;SDS011;6543;48.836;10.092;2022-11-20T13:52:48;3.33;;;1.40;;
12956;SDS011;6543;48.836;10.092;2022-11-20T13:55:24;2.27;;;1.27;;
12956;SDS011;6543;48.836;10.092;2022-11-20T13:58:12;2.73;;;1.43;;
12956;SDS011;6543;48.836;10.092;2022-11-20T14:00:50;1.30;;;1.20;;
12956;SDS011;6543;48.836;10.092;2022-11-20T14:03:23;1.80;;;1.27;;
12956;SDS011;6543;48.836;10.092;2022-11-20T14:05:52;2.57;;;1.87;;
12956;SDS011;6543;48.836;10.092;2022-11-20T14:08:25;2.03;;;1.80;;
12956;SDS011;6543;48.836;10.092;2022-11-20T14:11:12;3.93;;;1.63;;
12956;SDS011;6543;48.836;10.092;2022-11-20T14:13:52;1.43;;;1.23;;
12956;SDS011;6543;48.836;10.092;2022-11-20T14:16:21;1.90;;;1.10;;
12956;SDS011;6543;48.836;10.092;2022-11-20T14:18:48;2.27;;;1.30;;
12956;SDS011;6543;48.836;10.092;2022-11-20T14:21:21;2.20;;;1.23;;
12956;SDS011;6543;48.836;10.092;2022-11-20T14:23:52;2.67;;;1.37;;
12956;SDS011;6543;48.836;10.092;2022-11-20T14:26:20;1.13;;;0.77;;
12956;SDS011;6543;48.836;10.092;2022-11-20T14:28:47;1.03;;;0.93;;
12956;SDS011;6543;48.836;10.092;2022-11-20T14:31:18;0.90;;;0.80;;
12956;SDS011;6543;48.836;10.092;2022-11-20T14:33:50;1.77;;;0.70;;
12956;SDS011;6543;48.836;10.092;2022-11-20T14:36:18;4.03;;;1.37;;
12956;SDS011;6543;48.836;10.092;2022-11-20T14:38:48;1.77;;;1.13;;
12956;SDS011;6543;48.836;10.092;2022-11-20T14:41:16;1.90;;;1.53;;
12956;SDS011;6543;48.836;10.092;2022-11-20T14:43:45;2.30;;;1.33;;
12956;SDS011;6543;48.836;10.092;2022-11-20T14:46:13;4.27;;;1.70;;
12956;SDS011;6543;48.836;10.092;2022-11-20T14:48:43;3.33;;;1.37;;
12956;SDS011;6543;48.836;10.092;2022-11-20T14:51:22;2.50;;;1.53;;
12956;SDS011;6543;48.836;10.092;2022-11-20T14:53:53;4.03;;;1.77;;
12956;SDS011;6543;48.836;10.092;2022-11-20T14:56:21;2.73;;;1.60;;
12956;SDS011;6543;48.836;10.092;2022-11-20T14:58:55;2.50;;;1.40;;
12956;SDS011;6543;48.836;10.092;2022-11-20T15:01:25;1.53;;;1.33;;
12956;SDS011;6543;48.836;10.092;2022-11-20T15:03:58;4.37;;;1.43;;
12956;SDS011;6543;48.836;10.092;2022-11-20T15:06:26;2.27;;;0.90;;
12956;SDS011;6543;48.836;10.092;2022-11-20T15:08:54;2.63;;;1.10;;
12956;SDS011;6543;48.836;10.092;2022-11-20T15:11:23;2.60;;;1.50;;